Fredericksburg, Indiana
Current Conditions -  °F | °C
As of 12:56 AM on Thursday 29 Jan 2015 (Local Time) from KSDF Reporting Station
Overcast Overcast  
Wind Chill: 28°   Ceiling: 24000
Heat Index: 36°   Visibility: 10mi
Dew Point: 18°   Wind: 10mph
Humidity: 48%   Direction: 150°SSE
Pressure: 30.08"   Gusts: NA
Location:  38.43°N, 86.19°W
Report Text: KSDF 290556Z 15009KT 10SM OVC240 02/M08 A3008 RMK AO2 SLP188 T00221078 10028 20011 58022
Loading
Personal Weather Stations






























Interactive Weather Map New forecast layout! Learn more

10-Day Weather Forecast

Advertisements
Track Severe Weather on mobile